Ashland, Massachusetts
Current Conditions -  °F | °C
As of 7:53 AM on Saturday 22 Nov 2014 (Local Time) from KOWD Reporting Station
Clear Clear  
Wind Chill: 25°   Ceiling: Unl
Heat Index: 25°   Visibility: 10mi
Dew Point: 12°   Wind: 3mph
Humidity: 58%   Direction: 220°SW
Pressure: 30.43"   Gusts: NA
Location:  42.26°N, 71.46°W
Report Text: KOWD 221253Z 22003KT 10SM CLR M04/M11 A3043 RMK AO2 SLP306 T10391111
Loading
Personal Weather Stations






























Interactive Weather Map New forecast layout! Learn more

10-Day Weather Forecast

Advertisements
Track Severe Weather on mobile